Time,TemperatureF,DewpointF,PressureIn,WindDirection,WindDirectionDegrees,WindSpeedMPH,WindSpeedGustMPH,Humidity,HourlyPrecipIn,Conditions,Clouds,dailyrainin,SoftwareType,DateUTC
2013-08-09 00:00:00,65.2,51.8,29.83,WSW,238,0.0,0.0,62,0.00,,,0.00,Wunderground v.1.15,2013-08-09 07:00:00,
2013-08-09 00:10:00,65.0,52.5,29.83,WSW,238,0.0,0.0,64,0.00,,,0.00,Wunderground v.1.15,2013-08-09 07:10:00,
2013-08-09 00:15:00,64.9,50.2,29.83,WSW,238,0.0,0.0,59,0.00,,,0.00,Wunderground v.1.15,2013-08-09 07:15:00,
2013-08-09 00:25:00,65.2,49.6,29.83,WSW,238,0.0,0.0,57,0.00,,,0.00,Wunderground v.1.15,2013-08-09 07:25:00,
2013-08-09 00:30:00,65.1,51.8,29.83,WSW,238,0.0,0.0,62,0.00,,,0.00,Wunderground v.1.15,2013-08-09 07:30:00,
2013-08-09 00:40:00,64.1,51.7,29.83,WSW,238,0.0,3.0,64,0.00,,,0.00,Wunderground v.1.15,2013-08-09 07:40:00,
2013-08-09 00:45:00,63.3,52.2,29.83,WSW,238,3.0,5.0,67,0.00,,,0.00,Wunderground v.1.15,2013-08-09 07:45:00,
2013-08-09 00:50:00,62.8,50.9,29.83,WSW,238,4.0,5.0,65,0.00,,,0.00,Wunderground v.1.15,2013-08-09 07:50:00,
2013-08-09 01:00:00,62.1,51.0,29.83,WSW,238,4.0,4.0,67,0.00,,,0.00,Wunderground v.1.15,2013-08-09 08:00:00,
2013-08-09 01:10:00,61.7,50.6,29.83,WSW,238,4.0,5.0,67,0.00,,,0.00,Wunderground v.1.15,2013-08-09 08:10:00,
2013-08-09 01:15:00,61.5,50.4,29.83,WSW,238,4.0,5.0,67,0.00,,,0.00,Wunderground v.1.15,2013-08-09 08:15:00,
2013-08-09 01:20:00,61.3,51.0,29.83,WSW,238,4.0,4.0,69,0.00,,,0.00,Wunderground v.1.15,2013-08-09 08:20:00,
2013-08-09 01:25:00,60.8,50.6,29.83,WSW,238,2.0,4.0,69,0.00,,,0.00,Wunderground v.1.15,2013-08-09 08:25:00,
2013-08-09 01:35:00,60.8,50.6,29.83,WSW,238,0.0,1.0,69,0.00,,,0.00,Wunderground v.1.15,2013-08-09 08:35:00,
2013-08-09 01:40:00,60.9,51.0,29.83,WSW,238,0.0,0.0,70,0.00,,,0.00,Wunderground v.1.15,2013-08-09 08:40:00,
2013-08-09 01:50:00,60.7,50.9,29.83,WSW,237,2.0,3.0,70,0.00,,,0.00,Wunderground v.1.15,2013-08-09 08:50:00,
2013-08-09 01:55:00,60.3,50.9,29.83,WSW,237,2.0,4.0,71,0.00,,,0.00,Wunderground v.1.15,2013-08-09 08:55:00,
2013-08-09 02:00:00,60.0,50.6,29.83,WSW,237,4.0,4.0,71,0.00,,,0.00,Wunderground v.1.15,2013-08-09 09:00:00,
2013-08-09 02:10:00,59.8,51.1,29.83,WSW,237,0.0,0.0,73,0.00,,,0.00,Wunderground v.1.15,2013-08-09 09:10:00,
2013-08-09 02:20:00,59.6,50.6,29.83,WSW,237,2.0,2.0,72,0.00,,,0.00,Wunderground v.1.15,2013-08-09 09:20:00,
2013-08-09 02:25:00,59.5,50.5,29.83,WSW,237,3.0,3.0,72,0.00,,,0.00,Wunderground v.1.15,2013-08-09 09:25:00,
2013-08-09 02:30:00,59.5,49.7,29.83,WSW,237,2.0,2.0,70,0.00,,,0.00,Wunderground v.1.15,2013-08-09 09:30:00,
2013-08-09 02:40:00,59.9,50.1,29.83,WSW,237,2.0,2.0,70,0.00,,,0.00,Wunderground v.1.15,2013-08-09 09:40:00,
2013-08-09 02:45:00,59.8,50.0,29.83,WSW,237,3.0,3.0,70,0.00,,,0.00,Wunderground v.1.15,2013-08-09 09:45:00,
2013-08-09 02:50:00,59.6,49.8,29.83,WSW,237,2.0,2.0,70,0.00,,,0.00,Wunderground v.1.15,2013-08-09 09:50:00,
2013-08-09 03:00:00,59.9,50.1,29.83,WSW,237,1.0,1.0,70,0.00,,,0.00,Wunderground v.1.15,2013-08-09 10:00:00,
2013-08-09 03:10:00,59.6,49.0,29.83,WSW,237,1.0,4.0,68,0.00,,,0.00,Wunderground v.1.15,2013-08-09 10:10:00,
2013-08-09 03:15:00,59.8,48.8,29.83,WSW,237,3.0,4.0,67,0.00,,,0.00,Wunderground v.1.15,2013-08-09 10:15:00,
2013-08-09 03:20:00,59.9,49.3,29.83,WSW,237,3.0,3.0,68,0.00,,,0.00,Wunderground v.1.15,2013-08-09 10:20:00,
2013-08-09 03:30:00,59.4,48.4,29.83,WSW,238,0.0,2.0,67,0.00,,,0.00,Wunderground v.1.15,2013-08-09 10:30:00,
2013-08-09 03:35:00,59.3,50.3,29.83,WSW,238,0.0,2.0,72,0.00,,,0.00,Wunderground v.1.15,2013-08-09 10:35:00,
2013-08-09 03:40:00,58.4,50.5,29.83,WSW,238,0.0,0.0,75,0.00,,,0.00,Wunderground v.1.15,2013-08-09 10:40:00,
2013-08-09 03:45:00,57.5,50.7,29.83,WSW,238,0.0,0.0,78,0.00,,,0.00,Wunderground v.1.15,2013-08-09 10:45:00,
2013-08-09 03:55:00,57.0,50.5,29.83,WSW,238,0.0,0.0,79,0.00,,,0.00,Wunderground v.1.15,2013-08-09 10:55:00,
2013-08-09 04:00:00,57.1,50.3,29.83,WSW,238,1.0,3.0,78,0.00,,,0.00,Wunderground v.1.15,2013-08-09 11:00:00,
2013-08-09 04:10:00,57.3,50.1,29.83,WSW,238,4.0,4.0,77,0.00,,,0.00,Wunderground v.1.15,2013-08-09 11:10:00,
2013-08-09 04:15:00,57.3,49.8,29.83,WSW,238,3.0,4.0,76,0.00,,,0.00,Wunderground v.1.15,2013-08-09 11:15:00,
2013-08-09 04:20:00,57.5,48.9,29.83,SW,233,3.0,5.0,73,0.00,,,0.00,Wunderground v.1.15,2013-08-09 11:20:00,
2013-08-09 04:30:00,57.7,49.1,29.83,SW,226,4.0,4.0,73,0.00,,,0.00,Wunderground v.1.15,2013-08-09 11:30:00,
2013-08-09 04:35:00,57.5,49.3,29.83,SW,222,4.0,5.0,74,0.00,,,0.00,Wunderground v.1.15,2013-08-09 11:35:00,
2013-08-09 04:40:00,57.3,48.7,29.83,SW,221,4.0,4.0,73,0.00,,,0.00,Wunderground v.1.15,2013-08-09 11:40:00,
2013-08-09 04:50:00,57.3,48.7,29.83,SW,221,2.0,3.0,73,0.00,,,0.00,Wunderground v.1.15,2013-08-09 11:50:00,
2013-08-09 04:55:00,57.5,48.5,29.83,SW,221,3.0,4.0,72,0.00,,,0.00,Wunderground v.1.15,2013-08-09 11:55:00,
2013-08-09 05:00:00,57.5,48.5,29.83,SW,221,3.0,3.0,72,0.00,,,0.00,Wunderground v.1.15,2013-08-09 12:00:00,
2013-08-09 05:10:00,57.5,48.5,29.83,SW,221,1.0,4.0,72,0.00,,,0.00,Wunderground v.1.15,2013-08-09 12:10:00,
2013-08-09 05:15:00,57.4,48.8,29.83,SW,221,3.0,4.0,73,0.00,,,0.00,Wunderground v.1.15,2013-08-09 12:15:00,
2013-08-09 05:25:00,57.2,49.0,29.83,SW,221,3.0,3.0,74,0.00,,,0.00,Wunderground v.1.15,2013-08-09 12:25:00,
2013-08-09 05:30:00,57.1,48.5,29.83,SW,221,3.0,3.0,73,0.00,,,0.00,Wunderground v.1.15,2013-08-09 12:30:00,
2013-08-09 05:35:00,57.3,48.3,29.83,SW,221,3.0,3.0,72,0.00,,,0.00,Wunderground v.1.15,2013-08-09 12:35:00,
2013-08-09 05:45:00,57.3,48.7,29.83,SW,221,1.0,3.0,73,0.00,,,0.00,Wunderground v.1.15,2013-08-09 12:45:00,
2013-08-09 05:50:00,57.4,48.4,29.83,SW,221,0.0,0.0,72,0.00,,,0.00,Wunderground v.1.15,2013-08-09 12:50:00,
2013-08-09 05:55:00,57.7,48.4,29.83,SW,222,1.0,1.0,71,0.00,,,0.00,Wunderground v.1.15,2013-08-09 12:55:00,
2013-08-09 06:00:00,58.0,48.3,29.83,SW,221,0.0,2.0,70,0.00,,,0.00,Wunderground v.1.15,2013-08-09 13:00:00,
2013-08-09 06:10:00,57.8,49.2,29.83,SW,223,2.0,2.0,73,0.00,,,0.00,Wunderground v.1.15,2013-08-09 13:10:00,
2013-08-09 06:15:00,57.9,49.7,29.83,SW,223,1.0,2.0,74,0.00,,,0.00,Wunderground v.1.15,2013-08-09 13:15:00,
2013-08-09 06:25:00,58.7,51.2,29.83,SW,223,0.0,0.0,76,0.00,,,0.00,Wunderground v.1.15,2013-08-09 13:25:00,
2013-08-09 06:30:00,59.0,51.8,29.83,SW,223,0.0,0.0,77,0.00,,,0.00,Wunderground v.1.15,2013-08-09 13:30:00,
2013-08-09 06:35:00,59.4,52.5,29.83,SW,227,0.0,0.0,78,0.00,,,0.00,Wunderground v.1.15,2013-08-09 13:35:00,
2013-08-09 06:45:00,60.6,52.6,29.83,SW,227,0.0,0.0,75,0.00,,,0.00,Wunderground v.1.15,2013-08-09 13:45:00,
2013-08-09 06:50:00,61.5,53.1,29.83,SW,227,0.0,0.0,74,0.00,,,0.00,Wunderground v.1.15,2013-08-09 13:50:00,
2013-08-09 06:55:00,62.4,53.6,29.83,SW,227,0.0,2.0,73,0.00,,,0.00,Wunderground v.1.15,2013-08-09 13:55:00,
2013-08-09 07:00:00,63.4,54.2,29.83,SW,227,1.0,1.0,72,0.00,,,0.00,Wunderground v.1.15,2013-08-09 14:00:00,
2013-08-09 07:10:00,64.8,55.2,29.83,SW,227,0.0,0.0,71,0.00,,,0.00,Wunderground v.1.15,2013-08-09 14:10:00,
2013-08-09 07:15:00,65.3,54.9,29.83,SW,236,0.0,0.0,69,0.00,,,0.00,Wunderground v.1.15,2013-08-09 14:15:00,
2013-08-09 07:25:00,66.3,54.6,29.83,SW,236,0.0,0.0,66,0.00,,,0.00,Wunderground v.1.15,2013-08-09 14:25:00,
2013-08-09 07:30:00,66.8,55.1,29.83,SW,236,0.0,0.0,66,0.00,,,0.00,Wunderground v.1.15,2013-08-09 14:30:00,
2013-08-09 07:35:00,67.4,55.2,29.83,SW,236,0.0,0.0,65,0.00,,,0.00,Wunderground v.1.15,2013-08-09 14:35:00,
2013-08-09 07:45:00,68.6,55.5,29.83,WSW,238,0.0,0.0,63,0.00,,,0.00,Wunderground v.1.15,2013-08-09 14:45:00,
2013-08-09 07:50:00,69.3,54.8,29.83,WSW,238,0.0,0.0,60,0.00,,,0.00,Wunderground v.1.15,2013-08-09 14:50:00,
2013-08-09 07:55:00,69.8,54.8,29.83,WSW,238,0.0,0.0,59,0.00,,,0.00,Wunderground v.1.15,2013-08-09 14:55:00,
2013-08-09 08:00:00,70.4,54.9,29.83,WSW,238,0.0,0.0,58,0.00,,,0.00,Wunderground v.1.15,2013-08-09 15:00:00,
2013-08-09 08:10:00,72.0,54.4,29.83,WSW,238,0.0,0.0,54,0.00,,,0.00,Wunderground v.1.15,2013-08-09 15:10:00,
2013-08-09 08:20:00,74.3,55.0,29.83,WSW,238,0.0,0.0,51,0.00,,,0.00,Wunderground v.1.15,2013-08-09 15:20:00,
2013-08-09 08:30:00,75.8,55.3,29.83,WSW,238,0.0,0.0,49,0.00,,,0.00,Wunderground v.1.15,2013-08-09 15:30:00,
2013-08-09 08:35:00,76.0,56.0,29.83,WSW,238,0.0,0.0,50,0.00,,,0.00,Wunderground v.1.15,2013-08-09 15:35:00,
2013-08-09 08:40:00,76.4,56.9,29.83,WSW,238,0.0,0.0,51,0.00,,,0.00,Wunderground v.1.15,2013-08-09 15:40:00,
2013-08-09 08:50:00,77.2,54.2,29.83,WSW,238,0.0,0.0,45,0.00,,,0.00,Wunderground v.1.15,2013-08-09 15:50:00,
2013-08-09 08:55:00,77.5,56.3,29.83,WSW,238,0.0,0.0,48,0.00,,,0.00,Wunderground v.1.15,2013-08-09 15:55:00,
2013-08-09 09:00:00,77.8,54.1,29.83,WSW,238,0.0,0.0,44,0.00,,,0.00,Wunderground v.1.15,2013-08-09 16:00:00,
2013-08-09 09:10:00,78.2,53.9,29.83,WSW,238,0.0,0.0,43,0.00,,,0.00,Wunderground v.1.15,2013-08-09 16:10:00,
2013-08-09 09:15:00,78.8,55.0,29.83,WSW,240,0.0,3.0,44,0.00,,,0.00,Wunderground v.1.15,2013-08-09 16:15:00,
2013-08-09 09:25:00,79.7,54.6,29.83,WSW,240,0.0,2.0,42,0.00,,,0.00,Wunderground v.1.15,2013-08-09 16:25:00,
2013-08-09 09:30:00,80.3,55.8,29.83,WSW,240,0.0,0.0,43,0.00,,,0.00,Wunderground v.1.15,2013-08-09 16:30:00,
2013-08-09 09:35:00,80.8,57.5,29.83,WSW,242,1.0,1.0,45,0.00,,,0.00,Wunderground v.1.15,2013-08-09 16:35:00,
2013-08-09 09:40:00,81.0,57.7,29.83,North,9,1.0,4.0,45,0.00,,,0.00,Wunderground v.1.15,2013-08-09 16:40:00,
2013-08-09 09:45:00,81.1,56.5,29.83,NNE,30,1.0,4.0,43,0.00,,,0.00,Wunderground v.1.15,2013-08-09 16:45:00,
2013-08-09 09:55:00,81.4,56.1,29.83,NE,35,2.0,4.0,42,0.00,,,0.00,Wunderground v.1.15,2013-08-09 16:55:00,
2013-08-09 10:00:00,81.7,58.3,29.83,NE,35,3.0,4.0,45,0.00,,,0.00,Wunderground v.1.15,2013-08-09 17:00:00,
2013-08-09 10:10:00,81.8,57.1,29.83,NE,51,4.0,4.0,43,0.00,,,0.00,Wunderground v.1.15,2013-08-09 17:10:00,
2013-08-09 10:15:00,81.8,57.8,29.83,NE,49,4.0,5.0,44,0.00,,,0.00,Wunderground v.1.15,2013-08-09 17:15:00,
2013-08-09 10:25:00,82.6,56.5,29.83,NE,53,4.0,4.0,41,0.00,,,0.00,Wunderground v.1.15,2013-08-09 17:25:00,
2013-08-09 10:35:00,83.5,54.5,29.83,ENE,60,4.0,5.0,37,0.00,,,0.00,Wunderground v.1.15,2013-08-09 17:35:00,
2013-08-09 10:45:00,84.3,52.9,29.83,ENE,75,4.0,7.0,34,0.00,,,0.00,Wunderground v.1.15,2013-08-09 17:45:00,
2013-08-09 10:55:00,85.2,52.0,29.83,ENE,58,3.0,7.0,32,0.00,,,0.00,Wunderground v.1.15,2013-08-09 17:55:00,
2013-08-09 11:00:00,85.4,53.0,29.83,NE,50,3.0,3.0,33,0.00,,,0.00,Wunderground v.1.15,2013-08-09 18:00:00,
2013-08-09 11:10:00,85.8,53.4,29.83,East,84,1.0,6.0,33,0.00,,,0.00,Wunderground v.1.15,2013-08-09 18:10:00,
2013-08-09 11:20:00,85.9,51.8,29.83,NE,47,4.0,4.0,31,0.00,,,0.00,Wunderground v.1.15,2013-08-09 18:20:00,
2013-08-09 11:25:00,86.3,53.8,29.83,ENE,60,4.0,7.0,33,0.00,,,0.00,Wunderground v.1.15,2013-08-09 18:25:00,
2013-08-09 11:35:00,86.8,48.8,29.83,East,88,3.0,4.0,27,0.00,,,0.00,Wunderground v.1.15,2013-08-09 18:35:00,
2013-08-09 11:45:00,87.6,48.5,29.83,ENE,78,0.0,0.0,26,0.00,,,0.00,Wunderground v.1.15,2013-08-09 18:45:00,
2013-08-09 11:50:00,87.8,49.7,29.83,SSE,157,1.0,4.0,27,0.00,,,0.00,Wunderground v.1.15,2013-08-09 18:50:00,
2013-08-09 11:55:00,87.8,48.6,29.83,SE,134,2.0,4.0,26,0.00,,,0.00,Wunderground v.1.15,2013-08-09 18:55:00,
2013-08-09 12:00:00,88.1,47.9,29.83,SE,126,2.0,7.0,25,0.00,,,0.00,Wunderground v.1.15,2013-08-09 19:00:00,
2013-08-09 12:10:00,88.0,49.8,29.83,SE,145,5.0,5.0,27,0.00,,,0.00,Wunderground v.1.15,2013-08-09 19:10:00,
2013-08-09 12:20:00,88.2,46.8,29.83,SSE,150,6.0,6.0,24,0.00,,,0.00,Wunderground v.1.15,2013-08-09 19:20:00,
2013-08-09 12:25:00,88.2,49.0,29.83,SSE,153,2.0,6.0,26,0.00,,,0.00,Wunderground v.1.15,2013-08-09 19:25:00,
2013-08-09 12:30:00,88.5,51.2,29.83,SE,139,1.0,9.0,28,0.00,,,0.00,Wunderground v.1.15,2013-08-09 19:30:00,
2013-08-09 12:40:00,88.1,47.9,29.83,SSE,149,4.0,4.0,25,0.00,,,0.00,Wunderground v.1.15,2013-08-09 19:40:00,
2013-08-09 12:45:00,88.1,49.9,29.83,ESE,117,6.0,10.0,27,0.00,,,0.00,Wunderground v.1.15,2013-08-09 19:45:00,
2013-08-09 12:50:00,88.0,46.7,29.83,ESE,117,9.0,9.0,24,0.00,,,0.00,Wunderground v.1.15,2013-08-09 19:50:00,
2013-08-09 12:55:00,88.2,51.0,29.83,SSW,211,7.0,9.0,28,0.00,,,0.00,Wunderground v.1.15,2013-08-09 19:55:00,
2013-08-09 13:00:00,88.4,51.1,29.83,SSE,153,5.0,5.0,28,0.00,,,0.00,Wunderground v.1.15,2013-08-09 20:00:00,
2013-08-09 13:10:00,88.4,49.2,29.81,SE,132,7.0,12.0,26,0.00,,,0.00,Wunderground v.1.15,2013-08-09 20:10:00,
2013-08-09 13:20:00,88.2,47.9,29.81,SSE,167,5.0,5.0,25,0.00,,,0.00,Wunderground v.1.15,2013-08-09 20:20:00,
2013-08-09 13:25:00,88.6,50.3,29.81,South,169,2.0,5.0,27,0.00,,,0.00,Wunderground v.1.15,2013-08-09 20:25:00,
2013-08-09 13:35:00,89.2,47.7,29.80,South,183,3.0,4.0,24,0.00,,,0.00,Wunderground v.1.15,2013-08-09 20:35:00,
2013-08-09 13:40:00,89.4,48.9,29.80,South,178,2.0,2.0,25,0.00,,,0.00,Wunderground v.1.15,2013-08-09 20:40:00,
2013-08-09 13:45:00,89.4,47.9,29.80,SSE,153,3.0,3.0,24,0.00,,,0.00,Wunderground v.1.15,2013-08-09 20:45:00,
2013-08-09 13:50:00,89.1,47.6,29.80,SE,145,5.0,5.0,24,0.00,,,0.00,Wunderground v.1.15,2013-08-09 20:50:00,
2013-08-09 14:00:00,89.2,49.8,29.80,SSE,163,5.0,9.0,26,0.00,,,0.00,Wunderground v.1.15,2013-08-09 21:00:00,
2013-08-09 14:10:00,89.3,51.9,29.80,SW,224,4.0,4.0,28,0.00,,,0.00,Wunderground v.1.15,2013-08-09 21:10:00,
2013-08-09 14:15:00,89.6,52.2,29.80,SE,135,3.0,8.0,28,0.00,,,0.00,Wunderground v.1.15,2013-08-09 21:15:00,
2013-08-09 14:20:00,89.6,51.2,29.80,SE,128,4.0,6.0,27,0.00,,,0.00,Wunderground v.1.15,2013-08-09 21:20:00,
2013-08-09 14:30:00,89.6,50.2,29.80,SE,130,4.0,7.0,26,0.00,,,0.00,Wunderground v.1.15,2013-08-09 21:30:00,
2013-08-09 14:35:00,89.6,51.2,29.80,SSE,165,4.0,7.0,27,0.00,,,0.00,Wunderground v.1.15,2013-08-09 21:35:00,
2013-08-09 14:45:00,89.7,51.3,29.80,SE,139,6.0,7.0,27,0.00,,,0.00,Wunderground v.1.15,2013-08-09 21:45:00,
2013-08-09 14:50:00,89.7,51.3,29.80,SE,128,9.0,10.0,27,0.00,,,0.00,Wunderground v.1.15,2013-08-09 21:50:00,
2013-08-09 14:55:00,89.4,51.0,29.80,ESE,105,8.0,16.0,27,0.00,,,0.00,Wunderground v.1.15,2013-08-09 21:55:00,
2013-08-09 15:00:00,89.5,52.1,29.80,SSE,148,7.0,12.0,28,0.00,,,0.00,Wunderground v.1.15,2013-08-09 22:00:00,
2013-08-09 15:10:00,89.9,51.4,29.76,South,178,5.0,5.0,27,0.00,,,0.00,Wunderground v.1.15,2013-08-09 22:10:00,
2013-08-09 15:20:00,89.7,51.3,29.76,SE,146,5.0,5.0,27,0.00,,,0.00,Wunderground v.1.15,2013-08-09 22:20:00,
2013-08-09 15:25:00,89.7,51.3,29.76,ESE,117,5.0,5.0,27,0.00,,,0.00,Wunderground v.1.15,2013-08-09 22:25:00,
2013-08-09 15:30:00,89.9,48.3,29.76,South,173,3.0,3.0,24,0.00,,,0.00,Wunderground v.1.15,2013-08-09 22:30:00,
2013-08-09 15:40:00,90.0,51.5,29.76,South,178,2.0,2.0,27,0.00,,,0.00,Wunderground v.1.15,2013-08-09 22:40:00,
2013-08-09 15:45:00,90.2,50.7,29.76,SSW,205,2.0,2.0,26,0.00,,,0.00,Wunderground v.1.15,2013-08-09 22:45:00,
2013-08-09 15:50:00,90.6,52.0,29.75,SSW,197,2.0,2.0,27,0.00,,,0.00,Wunderground v.1.15,2013-08-09 22:50:00,
2013-08-09 15:55:00,90.5,48.8,29.75,SE,143,1.0,2.0,24,0.00,,,0.00,Wunderground v.1.15,2013-08-09 22:55:00,
2013-08-09 16:00:00,90.4,51.9,29.75,SSW,205,4.0,4.0,27,0.00,,,0.00,Wunderground v.1.15,2013-08-09 23:00:00,
2013-08-09 16:10:00,90.3,52.8,29.75,SSE,161,3.0,5.0,28,0.00,,,0.00,Wunderground v.1.15,2013-08-09 23:10:00,
2013-08-09 16:20:00,89.1,52.7,29.75,ESE,115,3.0,7.0,29,0.00,,,0.00,Wunderground v.1.15,2013-08-09 23:20:00,
2013-08-09 16:25:00,89.2,50.8,29.75,SE,136,3.0,7.0,27,0.00,,,0.00,Wunderground v.1.15,2013-08-09 23:25:00,
2013-08-09 16:30:00,89.7,52.3,29.75,South,179,2.0,2.0,28,0.00,,,0.00,Wunderground v.1.15,2013-08-09 23:30:00,
2013-08-09 16:35:00,89.5,53.0,29.75,SSE,164,2.0,2.0,29,0.00,,,0.00,Wunderground v.1.15,2013-08-09 23:35:00,
2013-08-09 16:45:00,88.3,51.1,29.75,SSE,168,1.0,2.0,28,0.00,,,0.00,Wunderground v.1.15,2013-08-09 23:45:00,
2013-08-09 16:50:00,88.7,52.4,29.75,South,172,0.0,0.0,29,0.00,,,0.00,Wunderground v.1.15,2013-08-09 23:50:00,
2013-08-09 16:55:00,88.8,52.4,29.75,SSE,148,1.0,1.0,29,0.00,,,0.00,Wunderground v.1.15,2013-08-09 23:55:00,
2013-08-09 17:00:00,88.8,53.4,29.75,South,190,2.0,2.0,30,0.00,,,0.00,Wunderground v.1.15,2013-08-10 00:00:00,
2013-08-09 17:10:00,88.7,53.3,29.75,SE,132,2.0,2.0,30,0.00,,,0.00,Wunderground v.1.15,2013-08-10 00:10:00,
2013-08-09 17:15:00,88.6,52.3,29.75,SSE,157,3.0,3.0,29,0.00,,,0.00,Wunderground v.1.15,2013-08-10 00:15:00,
2013-08-09 17:25:00,87.9,51.7,29.75,SSW,211,2.0,2.0,29,0.00,,,0.00,Wunderground v.1.15,2013-08-10 00:25:00,
2013-08-09 17:30:00,88.0,52.7,29.75,SSE,150,2.0,2.0,30,0.00,,,0.00,Wunderground v.1.15,2013-08-10 00:30:00,
2013-08-09 17:35:00,88.0,53.6,29.75,SSW,210,1.0,2.0,31,0.00,,,0.00,Wunderground v.1.15,2013-08-10 00:35:00,
2013-08-09 17:45:00,88.2,52.9,29.75,South,180,0.0,1.0,30,0.00,,,0.00,Wunderground v.1.15,2013-08-10 00:45:00,
2013-08-09 17:50:00,87.9,53.5,29.75,SSE,167,0.0,0.0,31,0.00,,,0.00,Wunderground v.1.15,2013-08-10 00:50:00,
2013-08-09 17:55:00,87.8,52.5,29.75,South,180,1.0,1.0,30,0.00,,,0.00,Wunderground v.1.15,2013-08-10 00:55:00,
2013-08-09 18:00:00,87.8,51.6,29.75,SW,215,1.0,1.0,29,0.00,,,0.00,Wunderground v.1.15,2013-08-10 01:00:00,
2013-08-09 18:10:00,87.2,52.0,29.75,South,178,1.0,1.0,30,0.00,,,0.00,Wunderground v.1.15,2013-08-10 01:10:00,
2013-08-09 18:15:00,86.8,52.5,29.75,SSW,211,1.0,1.0,31,0.00,,,0.00,Wunderground v.1.15,2013-08-10 01:15:00,
2013-08-09 18:20:00,86.2,51.1,29.75,SSW,209,2.0,2.0,30,0.00,,,0.00,Wunderground v.1.15,2013-08-10 01:20:00,
2013-08-09 18:25:00,85.9,53.5,29.75,SSW,213,1.0,5.0,33,0.00,,,0.00,Wunderground v.1.15,2013-08-10 01:25:00,
2013-08-09 18:35:00,85.5,50.5,29.75,SSW,201,1.0,1.0,30,0.00,,,0.00,Wunderground v.1.15,2013-08-10 01:35:00,
2013-08-09 18:40:00,85.0,51.0,29.75,South,190,0.0,0.0,31,0.00,,,0.00,Wunderground v.1.15,2013-08-10 01:40:00,
2013-08-09 18:45:00,84.2,51.1,29.75,South,187,0.0,0.0,32,0.00,,,0.00,Wunderground v.1.15,2013-08-10 01:45:00,
2013-08-09 18:55:00,83.0,51.7,29.75,South,190,0.0,0.0,34,0.00,,,0.00,Wunderground v.1.15,2013-08-10 01:55:00,
2013-08-09 19:00:00,82.4,52.0,29.75,SSW,192,0.0,0.0,35,0.00,,,0.00,Wunderground v.1.15,2013-08-10 02:00:00,
2013-08-09 19:10:00,81.4,51.9,29.75,SSW,192,0.0,0.0,36,0.00,,,0.00,Wunderground v.1.15,2013-08-10 02:10:00,
2013-08-09 19:15:00,80.8,52.1,29.75,SSW,192,0.0,0.0,37,0.00,,,0.00,Wunderground v.1.15,2013-08-10 02:15:00,
2013-08-09 19:20:00,80.3,52.4,29.75,SSW,193,0.0,0.0,38,0.00,,,0.00,Wunderground v.1.15,2013-08-10 02:20:00,
2013-08-09 19:30:00,79.1,52.7,29.75,South,188,0.0,0.0,40,0.00,,,0.00,Wunderground v.1.15,2013-08-10 02:30:00,
2013-08-09 19:35:00,78.6,52.3,29.75,South,182,0.0,3.0,40,0.00,,,0.00,Wunderground v.1.15,2013-08-10 02:35:00,
2013-08-09 19:40:00,78.2,51.9,29.75,South,186,0.0,0.0,40,0.00,,,0.00,Wunderground v.1.15,2013-08-10 02:40:00,
2013-08-09 19:45:00,78.0,51.7,29.75,South,187,0.0,0.0,40,0.00,,,0.00,Wunderground v.1.15,2013-08-10 02:45:00,
2013-08-09 19:55:00,77.0,54.0,29.75,SW,217,2.0,5.0,45,0.00,,,0.00,Wunderground v.1.15,2013-08-10 02:55:00,
2013-08-09 20:00:00,76.3,52.8,29.75,SSW,213,5.0,5.0,44,0.00,,,0.00,Wunderground v.1.15,2013-08-10 03:00:00,
2013-08-09 20:10:00,75.2,53.0,29.75,SW,219,3.0,3.0,46,0.00,,,0.00,Wunderground v.1.15,2013-08-10 03:10:00,
2013-08-09 20:15:00,74.6,54.2,29.75,WSW,240,2.0,5.0,49,0.00,,,0.00,Wunderground v.1.15,2013-08-10 03:15:00,
2013-08-09 20:20:00,73.8,53.4,29.75,SW,235,3.0,3.0,49,0.00,,,0.00,Wunderground v.1.15,2013-08-10 03:20:00,
2013-08-09 20:30:00,73.4,53.1,29.75,SW,216,3.0,4.0,49,0.00,,,0.00,Wunderground v.1.15,2013-08-10 03:30:00,
2013-08-09 20:35:00,73.1,52.8,29.75,SSW,213,4.0,4.0,49,0.00,,,0.00,Wunderground v.1.15,2013-08-10 03:35:00,
2013-08-09 20:40:00,73.0,53.8,29.75,SW,215,3.0,3.0,51,0.00,,,0.00,Wunderground v.1.15,2013-08-10 03:40:00,
2013-08-09 20:50:00,73.2,53.4,29.75,SSW,198,1.0,1.0,50,0.00,,,0.00,Wunderground v.1.15,2013-08-10 03:50:00,
2013-08-09 20:55:00,73.5,53.2,29.75,South,190,1.0,1.0,49,0.00,,,0.00,Wunderground v.1.15,2013-08-10 03:55:00,
2013-08-09 21:00:00,73.7,53.3,29.75,SSW,196,1.0,1.0,49,0.00,,,0.00,Wunderground v.1.15,2013-08-10 04:00:00,
2013-08-09 21:05:00,74.0,53.1,29.75,SSW,207,1.0,1.0,48,0.00,,,0.00,Wunderground v.1.15,2013-08-10 04:05:00,
2013-08-09 21:10:00,74.0,53.1,29.75,SSW,199,1.0,1.0,48,0.00,,,0.00,Wunderground v.1.15,2013-08-10 04:10:00,
2013-08-09 21:15:00,73.8,52.9,29.75,SW,225,3.0,3.0,48,0.00,,,0.00,Wunderground v.1.15,2013-08-10 04:15:00,
2013-08-09 21:20:00,73.4,52.5,29.75,SW,218,4.0,6.0,48,0.00,,,0.00,Wunderground v.1.15,2013-08-10 04:20:00,
2013-08-09 21:25:00,73.1,52.8,29.75,SW,217,4.0,6.0,49,0.00,,,0.00,Wunderground v.1.15,2013-08-10 04:25:00,
2013-08-09 21:30:00,72.8,52.5,29.75,SW,226,4.0,4.0,49,0.00,,,0.00,Wunderground v.1.15,2013-08-10 04:30:00,
2013-08-09 21:35:00,72.0,53.4,29.75,WSW,246,4.0,6.0,52,0.00,,,0.00,Wunderground v.1.15,2013-08-10 04:35:00,
2013-08-09 21:45:00,71.6,52.0,29.75,SW,236,5.0,6.0,50,0.00,,,0.00,Wunderground v.1.15,2013-08-10 04:45:00,
2013-08-09 21:50:00,71.6,51.4,29.75,SSW,212,4.0,6.0,49,0.00,,,0.00,Wunderground v.1.15,2013-08-10 04:50:00,
2013-08-09 22:00:00,72.2,50.8,29.75,SW,222,5.0,5.0,47,0.00,,,0.00,Wunderground v.1.15,2013-08-10 05:00:00,
2013-08-09 22:10:00,73.2,51.2,29.75,SW,226,4.0,4.0,46,0.00,,,0.00,Wunderground v.1.15,2013-08-10 05:10:00,
2013-08-09 22:15:00,73.4,51.4,29.75,SW,234,3.0,4.0,46,0.00,,,0.00,Wunderground v.1.15,2013-08-10 05:15:00,
2013-08-09 22:20:00,73.5,50.9,29.75,SW,234,2.0,2.0,45,0.00,,,0.00,Wunderground v.1.15,2013-08-10 05:20:00,
2013-08-09 22:25:00,72.3,52.1,29.75,ESE,120,3.0,10.0,49,0.00,,,0.00,Wunderground v.1.15,2013-08-10 05:25:00,
2013-08-09 22:30:00,72.4,52.2,29.75,SE,135,7.0,7.0,49,0.00,,,0.00,Wunderground v.1.15,2013-08-10 05:30:00,
2013-08-09 22:35:00,74.0,53.1,29.75,SSE,150,8.0,8.0,48,0.00,,,0.00,Wunderground v.1.15,2013-08-10 05:35:00,
2013-08-09 22:40:00,75.3,53.7,29.75,SSE,159,7.0,7.0,47,0.00,,,0.00,Wunderground v.1.15,2013-08-10 05:40:00,
2013-08-09 22:45:00,75.7,54.0,29.75,SE,134,5.0,7.0,47,0.00,,,0.00,Wunderground v.1.15,2013-08-10 05:45:00,
2013-08-09 22:55:00,75.5,53.9,29.75,SE,146,4.0,4.0,47,0.00,,,0.00,Wunderground v.1.15,2013-08-10 05:55:00,
2013-08-09 23:00:00,74.9,54.4,29.75,SSE,161,2.0,2.0,49,0.00,,,0.00,Wunderground v.1.15,2013-08-10 06:00:00,
2013-08-09 23:10:00,73.4,54.2,29.75,South,181,0.0,0.0,51,0.00,,,0.00,Wunderground v.1.15,2013-08-10 06:10:00,
2013-08-09 23:15:00,73.0,54.3,29.75,South,182,0.0,3.0,52,0.00,,,0.00,Wunderground v.1.15,2013-08-10 06:15:00,
2013-08-09 23:20:00,72.7,54.1,29.75,South,180,0.0,0.0,52,0.00,,,0.00,Wunderground v.1.15,2013-08-10 06:20:00,
2013-08-09 23:30:00,72.5,54.4,29.75,South,184,0.0,0.0,53,0.00,,,0.00,Wunderground v.1.15,2013-08-10 06:30:00,
2013-08-09 23:35:00,72.8,54.7,29.75,South,186,1.0,1.0,53,0.00,,,0.00,Wunderground v.1.15,2013-08-10 06:35:00,
2013-08-09 23:40:00,72.9,54.8,29.75,SSE,163,1.0,1.0,53,0.00,,,0.00,Wunderground v.1.15,2013-08-10 06:40:00,
2013-08-09 23:45:00,72.6,55.0,29.75,SSE,165,0.0,1.0,54,0.00,,,0.00,Wunderground v.1.15,2013-08-10 06:45:00,
2013-08-09 23:55:00,73.0,54.3,29.75,SW,226,1.0,6.0,52,0.00,,,0.00,Wunderground v.1.15,2013-08-10 06:55:00,